Time;durP1;ratioP1;P1;durP2;ratioP2;P2;SDS_P1;SDS_P2;PMS_P1;PMS_P2;Temp;Humidity;BMP_temperature;BMP_pressure;BME280_temperature;BME280_humidity;BME280_pressure;Samples;Min_cycle;Max_cycle;Signal;HPM_P1;HPM_P2
2021/03/16 00:00:50;;;;;;;4.22;1.05;;;20.90;70.20;;;;;;5086946;28;20055;-71
2021/03/16 00:03:18;;;;;;;4.95;1.25;;;20.90;70.00;;;;;;5081161;28;20039;-71
2021/03/16 00:05:45;;;;;;;2.40;0.90;;;20.90;69.90;;;;;;5083291;28;20430;-71
2021/03/16 00:08:11;;;;;;;4.32;1.00;;;20.90;69.90;;;;;;5082480;28;20352;-76
2021/03/16 00:10:38;;;;;;;3.00;1.00;;;20.90;69.90;;;;;;5078093;28;20246;-71
2021/03/16 00:13:05;;;;;;;3.67;1.10;;;20.90;69.90;;;;;;5084558;28;20036;-74
2021/03/16 00:15:31;;;;;;;3.25;1.50;;;20.90;69.90;;;;;;5085906;28;20016;-72
2021/03/16 00:17:59;;;;;;;6.85;1.45;;;20.90;69.90;;;;;;5085933;28;20571;-71
2021/03/16 00:20:25;;;;;;;2.88;1.10;;;20.90;70.00;;;;;;5079068;28;20925;-71
2021/03/16 00:22:51;;;;;;;3.83;1.35;;;20.90;70.00;;;;;;5083020;28;20024;-73
2021/03/16 00:25:18;;;;;;;7.68;1.50;;;20.90;70.00;;;;;;5075733;28;20028;-72
2021/03/16 00:27:45;;;;;;;3.97;1.13;;;20.90;70.00;;;;;;5084204;28;20444;-72
2021/03/16 00:30:12;;;;;;;7.55;1.38;;;20.90;70.10;;;;;;5077871;28;20055;-77
2021/03/16 00:32:39;;;;;;;3.33;1.42;;;20.90;70.10;;;;;;5081857;28;20032;-72
2021/03/16 00:35:07;;;;;;;3.80;1.63;;;20.80;70.00;;;;;;5088573;28;20103;-71
2021/03/16 00:37:34;;;;;;;6.60;1.88;;;20.80;70.00;;;;;;5084177;28;20039;-72
2021/03/16 00:40:01;;;;;;;5.80;2.00;;;20.90;70.10;;;;;;5085198;28;20013;-72
2021/03/16 00:42:27;;;;;;;5.00;1.20;;;20.80;70.00;;;;;;5092869;28;20111;-71
2021/03/16 00:44:54;;;;;;;5.32;1.38;;;20.90;70.10;;;;;;5079620;28;20510;-72
2021/03/16 00:47:21;;;;;;;7.82;1.52;;;20.80;70.00;;;;;;5086190;28;20033;-71
2021/03/16 00:49:48;;;;;;;4.25;1.65;;;20.80;70.10;;;;;;5085751;28;20060;-77
2021/03/16 00:52:14;;;;;;;3.17;0.93;;;20.80;70.10;;;;;;5083541;28;20478;-72
2021/03/16 00:54:40;;;;;;;3.00;1.30;;;20.80;70.10;;;;;;5083793;28;20048;-71
2021/03/16 00:57:07;;;;;;;2.88;1.35;;;20.80;70.20;;;;;;5090939;28;20028;-78
2021/03/16 00:59:33;;;;;;;4.80;1.60;;;20.80;70.20;;;;;;5087962;28;20027;-71
2021/03/16 01:02:00;;;;;;;2.47;0.95;;;20.80;70.20;;;;;;5082960;28;20021;-73
2021/03/16 01:04:26;;;;;;;8.40;2.28;;;20.80;70.30;;;;;;5084177;28;20023;-76
2021/03/16 01:06:53;;;;;;;5.72;1.67;;;20.80;70.20;;;;;;5081329;28;20060;-71
2021/03/16 01:09:19;;;;;;;3.30;1.20;;;20.80;70.20;;;;;;5085198;28;20025;-71
2021/03/16 01:11:46;;;;;;;5.18;1.27;;;20.80;70.10;;;;;;5085621;28;20169;-71
2021/03/16 01:14:12;;;;;;;4.03;1.77;;;20.80;70.00;;;;;;5086893;28;20055;-72
2021/03/16 01:16:39;;;;;;;6.25;2.13;;;20.80;70.00;;;;;;5082521;28;20036;-72
2021/03/16 01:19:06;;;;;;;4.75;1.88;;;20.80;70.60;;;;;;5083463;28;20391;-73
2021/03/16 01:21:32;;;;;;;8.40;1.70;;;20.70;69.80;;;;;;5080830;28;20059;-76
2021/03/16 01:23:59;;;;;;;4.60;1.38;;;20.80;69.90;;;;;;5087152;28;20047;-71
2021/03/16 01:26:25;;;;;;;6.70;2.25;;;20.80;69.80;;;;;;5084758;28;20012;-71
2021/03/16 01:28:52;;;;;;;7.40;2.00;;;20.80;69.80;;;;;;5085736;28;20024;-72
2021/03/16 01:31:18;;;;;;;4.93;1.15;;;20.70;69.80;;;;;;5085693;28;20034;-71
2021/03/16 01:33:45;;;;;;;5.25;1.65;;;20.70;69.80;;;;;;5083315;28;20028;-71
2021/03/16 01:36:11;;;;;;;5.25;1.48;;;20.70;69.80;;;;;;5085722;28;20066;-71
2021/03/16 01:38:38;;;;;;;5.28;1.38;;;20.70;69.70;;;;;;5091433;28;20026;-71
2021/03/16 01:41:04;;;;;;;4.93;1.75;;;20.70;69.70;;;;;;5086420;28;20398;-71
2021/03/16 01:43:32;;;;;;;4.72;1.63;;;20.70;69.80;;;;;;5083608;28;20127;-71
2021/03/16 01:45:59;;;;;;;5.10;1.50;;;20.70;69.80;;;;;;5081780;28;20031;-71
2021/03/16 01:48:33;;;;;;;6.85;1.60;;;20.70;69.90;;;;;;5085128;28;20023;-71
2021/03/16 01:51:03;;;;;;;6.07;1.05;;;20.70;70.00;;;;;;5077219;28;20039;-72
2021/03/16 01:53:29;;;;;;;5.25;1.30;;;20.70;70.20;;;;;;5086269;28;20021;-74
2021/03/16 01:55:58;;;;;;;4.85;1.48;;;20.70;70.30;;;;;;5084370;28;20028;-72
2021/03/16 01:58:24;;;;;;;5.72;1.30;;;20.60;70.30;;;;;;5079212;28;20036;-72
2021/03/16 02:00:51;;;;;;;6.45;1.52;;;20.70;70.40;;;;;;5085903;28;20024;-77
2021/03/16 02:03:18;;;;;;;6.05;2.00;;;20.70;70.30;;;;;;5087849;28;20016;-72
2021/03/16 04:34:28;;;;;;;7.13;4.20;;;20.10;72.50;;;;;;6191051;23;20020;-73
2021/03/16 04:37:34;;;;;;;8.75;3.17;;;20.10;72.30;;;;;;6218489;23;20327;-78
2021/03/16 04:40:40;;;;;;;9.65;3.42;;;20.10;72.20;;;;;;6191758;23;20080;-78
2021/03/16 04:43:46;;;;;;;9.13;2.30;;;20.20;72.10;;;;;;6219599;23;20011;-79
2021/03/16 04:46:52;;;;;;;6.80;3.38;;;20.20;72.00;;;;;;6220920;23;20054;-73
2021/03/16 04:49:58;;;;;;;4.97;2.40;;;20.20;72.00;;;;;;6219115;23;20000;-74
2021/03/16 04:53:05;;;;;;;5.78;1.98;;;20.20;72.00;;;;;;6218847;23;20008;-72
2021/03/16 04:55:34;;;;;;;7.90;2.67;;;20.20;72.00;;;;;;6219780;23;20359;-76
2021/03/16 04:58:02;;;;;;;5.45;1.95;;;20.20;72.20;;;;;;6218414;23;20008;-75
2021/03/16 05:01:08;;;;;;;7.93;2.60;;;20.20;72.30;;;;;;6219292;23;20031;-73
2021/03/16 05:04:15;;;;;;;9.32;2.22;;;20.20;72.30;;;;;;6220089;23;20115;-75
2021/03/16 05:07:21;;;;;;;7.07;2.15;;;20.20;72.40;;;;;;6219074;23;20001;-77
2021/03/16 05:10:28;;;;;;;5.47;2.85;;;20.20;72.50;;;;;;6218335;23;20004;-77
2021/03/16 05:13:34;;;;;;;6.65;1.50;;;20.20;72.50;;;;;;6219118;23;20036;-77
2021/03/16 05:16:40;;;;;;;5.95;2.20;;;20.20;72.60;;;;;;6219646;23;20001;-73
2021/03/16 05:19:46;;;;;;;5.32;1.98;;;20.20;72.70;;;;;;6218192;23;20001;-73
2021/03/16 05:22:52;;;;;;;5.05;1.48;;;20.20;72.70;;;;;;6219380;23;20064;-75
2021/03/16 05:25:59;;;;;;;5.15;2.17;;;20.20;72.70;;;;;;6212046;23;19997;-75
2021/03/16 05:28:45;;;;;;;;;;;20.20;72.70;;;;;;6211294;23;20000;-74
2021/03/16 05:31:12;;;;;;;5.20;1.58;;;20.20;72.90;;;;;;6211293;23;19900;-73
2021/03/16 05:33:39;;;;;;;4.82;1.48;;;20.20;73.10;;;;;;6211465;23;20055;-74
2021/03/16 05:36:06;;;;;;;5.80;2.03;;;20.20;73.20;;;;;;6210891;23;20004;-78
2021/03/16 05:38:33;;;;;;;3.42;1.50;;;20.20;73.30;;;;;;6211767;23;20030;-75
2021/03/16 05:41:01;;;;;;;4.43;1.77;;;20.20;73.40;;;;;;6210268;23;20011;-74
2021/03/16 05:43:28;;;;;;;4.88;1.67;;;20.20;73.40;;;;;;6211217;23;20076;-76
2021/03/16 05:46:37;;;;;;;4.35;1.30;;;20.20;73.50;;;;;;6211051;23;20004;-74
2021/03/16 05:49:43;;;;;;;4.93;1.33;;;20.20;73.50;;;;;;6211446;23;20356;-76
2021/03/16 05:52:49;;;;;;;5.15;1.48;;;20.20;73.50;;;;;;6211946;23;20012;-76
2021/03/16 05:55:55;;;;;;;6.05;1.23;;;20.20;73.50;;;;;;6212483;23;20099;-78
2021/03/16 05:59:01;;;;;;;3.78;1.73;;;20.20;73.60;;;;;;6211383;23;20450;-78
2021/03/16 06:02:07;;;;;;;5.03;1.30;;;20.30;73.50;;;;;;6212228;23;20009;-77
2021/03/16 06:05:13;;;;;;;5.03;1.77;;;20.20;73.40;;;;;;6212676;23;20000;-74
2021/03/16 06:08:19;;;;;;;1.85;1.13;;;20.20;73.30;;;;;;6212160;23;20024;-72
2021/03/16 06:11:25;;;;;;;3.42;1.00;;;20.30;73.30;;;;;;6211647;23;20055;-75
2021/03/16 06:14:31;;;;;;;4.82;1.52;;;20.30;73.20;;;;;;6211927;23;20012;-76
2021/03/16 06:17:37;;;;;;;7.95;2.38;;;20.30;73.10;;;;;;6212267;23;20040;-74
2021/03/16 06:20:43;;;;;;;4.18;1.27;;;20.30;73.10;;;;;;6211297;23;20015;-75
2021/03/16 06:23:12;;;;;;;5.07;1.25;;;20.30;72.80;;;;;;6185686;23;20055;-74
2021/03/16 06:25:43;;;;;;;2.28;0.85;;;20.30;72.70;;;;;;6212589;23;20363;-74
2021/03/16 06:28:12;;;;;;;2.72;1.17;;;20.30;72.50;;;;;;6211762;23;20328;-74
2021/03/16 06:30:40;;;;;;;3.70;1.10;;;20.40;72.30;;;;;;6212177;23;20058;-74
2021/03/16 06:33:24;;;;;;;4.32;1.20;;;20.40;72.20;;;;;;6210458;23;20032;-77
2021/03/16 06:35:58;;;;;;;6.55;1.92;;;20.40;72.00;;;;;;6211548;23;20136;-77
2021/03/16 06:38:25;;;;;;;4.50;1.00;;;20.40;71.60;;;;;;6211862;23;20004;-77
2021/03/16 06:40:53;;;;;;;3.15;0.73;;;20.50;71.50;;;;;;6211590;23;20000;-75
2021/03/16 06:43:24;;;;;;;3.80;1.15;;;20.50;71.30;;;;;;6212361;23;20006;-76
2021/03/16 06:45:52;;;;;;;5.03;1.33;;;20.50;71.20;;;;;;6211002;23;20511;-75
2021/03/16 06:48:22;;;;;;;2.78;1.23;;;20.50;71.10;;;;;;6212154;23;20440;-74
2021/03/16 06:50:50;;;;;;;4.72;0.95;;;20.50;70.90;;;;;;6211396;23;20003;-75
2021/03/16 06:53:29;;;;;;;4.55;2.03;;;20.60;70.90;;;;;;6211488;23;20016;-77
2021/03/16 06:55:58;;;;;;;2.33;1.20;;;20.60;71.00;;;;;;6212021;23;20428;-75
2021/03/16 06:58:30;;;;;;;4.03;1.33;;;20.70;71.00;;;;;;6210849;23;20004;-78
2021/03/16 07:01:14;;;;;;;3.22;1.88;;;20.70;71.20;;;;;;6212028;23;20000;-74
2021/03/16 07:03:41;;;;;;;3.13;1.27;;;20.70;71.20;;;;;;6210678;23;20061;-76
2021/03/16 07:06:11;;;;;;;6.65;1.63;;;20.80;71.20;;;;;;6211767;23;20080;-75
2021/03/16 07:08:39;;;;;;;5.60;1.30;;;20.80;71.10;;;;;;6211649;23;20104;-77
2021/03/16 07:11:07;;;;;;;3.83;1.73;;;20.80;70.80;;;;;;6211264;23;20008;-78
2021/03/16 07:13:35;;;;;;;4.82;1.40;;;20.90;70.70;;;;;;6185105;23;20375;-77
2021/03/16 07:16:02;;;;;;;6.72;1.90;;;20.90;70.40;;;;;;6210951;23;19997;-77
2021/03/16 07:18:34;;;;;;;5.18;1.20;;;20.90;70.10;;;;;;6212125;23;20003;-76
2021/03/16 07:21:24;;;;;;;4.18;1.33;;;20.90;69.60;;;;;;6211113;23;20004;-78
2021/03/16 07:23:54;;;;;;;3.67;1.60;;;21.00;69.30;;;;;;6211095;23;20005;-78
2021/03/16 07:26:21;;;;;;;5.70;1.50;;;21.00;69.10;;;;;;6211491;23;20027;-75
2021/03/16 07:28:48;;;;;;;3.75;1.30;;;21.00;68.90;;;;;;6210379;23;20075;-76
2021/03/16 07:31:15;;;;;;;3.67;1.05;;;21.10;69.10;;;;;;6211914;23;20000;-78
2021/03/16 07:33:42;;;;;;;5.07;1.10;;;21.10;69.00;;;;;;6210111;23;20013;-76
2021/03/16 07:36:09;;;;;;;7.47;1.92;;;21.10;68.80;;;;;;6211477;23;20329;-78
2021/03/16 07:38:38;;;;;;;3.65;1.30;;;21.20;68.60;;;;;;6210982;23;20000;-74
2021/03/16 07:41:06;;;;;;;8.57;1.05;;;21.20;68.40;;;;;;6211666;23;20035;-75
2021/03/16 07:43:38;;;;;;;3.92;1.17;;;21.20;69.10;;;;;;6211881;23;20008;-75
2021/03/16 07:46:08;;;;;;;3.15;1.10;;;21.30;68.30;;;;;;6210721;23;20001;-75
2021/03/16 07:48:34;;;;;;;4.20;1.10;;;21.30;67.70;;;;;;6212154;23;20040;-75
2021/03/16 07:51:11;;;;;;;7.90;1.50;;;21.30;67.70;;;;;;6210371;23;20031;-75
2021/03/16 07:53:41;;;;;;;4.80;1.38;;;21.40;67.60;;;;;;6211439;23;20023;-75
2021/03/16 07:56:15;;;;;;;5.72;1.17;;;21.40;67.40;;;;;;6211106;23;20000;-75
2021/03/16 07:58:45;;;;;;;6.28;1.88;;;21.40;67.30;;;;;;6211263;23;20031;-75
2021/03/16 08:01:13;;;;;;;8.30;1.17;;;21.50;67.30;;;;;;6211639;23;20004;-76
2021/03/16 08:03:41;;;;;;;4.65;1.00;;;21.50;67.00;;;;;;6210085;23;19996;-75
2021/03/16 08:06:08;;;;;;;3.13;1.00;;;21.50;66.90;;;;;;6211533;23;20087;-76
2021/03/16 08:08:40;;;;;;;3.72;1.42;;;21.60;66.40;;;;;;6183435;23;20319;-75
2021/03/16 08:11:12;;;;;;;3.50;0.93;;;21.60;66.10;;;;;;6211587;23;20004;-76
2021/03/16 08:13:39;;;;;;;9.75;1.33;;;21.70;66.00;;;;;;6211516;23;20074;-75
2021/03/16 08:16:15;;;;;;;3.65;0.98;;;21.70;65.90;;;;;;6210838;23;20068;-76
2021/03/16 08:18:42;;;;;;;5.38;1.45;;;21.80;65.30;;;;;;6211739;23;20009;-76
2021/03/16 08:21:10;;;;;;;6.45;1.05;;;21.80;64.60;;;;;;6209307;23;20424;-76
2021/03/16 08:23:38;;;;;;;7.28;1.25;;;21.80;64.40;;;;;;6211128;23;20005;-75
2021/03/16 08:26:06;;;;;;;4.15;1.17;;;21.90;64.10;;;;;;6210824;23;20005;-75
2021/03/16 08:28:36;;;;;;;4.30;0.90;;;21.90;63.60;;;;;;6210724;23;20031;-76
2021/03/16 08:31:03;;;;;;;5.38;1.15;;;22.00;63.70;;;;;;6184572;23;20004;-75
2021/03/16 08:33:30;;;;;;;2.05;0.65;;;22.00;63.80;;;;;;6210171;23;20417;-76
2021/03/16 08:35:57;;;;;;;2.70;0.70;;;22.10;63.50;;;;;;6211399;23;20078;-76
2021/03/16 08:38:30;;;;;;;3.22;0.70;;;22.10;62.90;;;;;;6210532;23;20428;-75
2021/03/16 08:41:06;;;;;;;5.78;1.55;;;22.10;62.90;;;;;;6211576;23;20001;-77
2021/03/16 08:43:36;;;;;;;4.32;1.20;;;22.10;62.90;;;;;;6210320;23;19996;-76
2021/03/16 08:46:03;;;;;;;2.83;0.65;;;22.20;63.20;;;;;;6210880;23;20047;-76
2021/03/16 08:48:32;;;;;;;2.92;1.40;;;22.30;63.20;;;;;;6211763;23;20004;-78
2021/03/16 08:50:59;;;;;;;4.10;0.88;;;22.30;63.70;;;;;;6183593;23;20008;-77
2021/03/16 08:53:26;;;;;;;3.55;1.10;;;22.30;63.50;;;;;;6210894;23;20009;-77
2021/03/16 08:55:53;;;;;;;3.30;0.80;;;22.40;63.20;;;;;;6209897;23;20083;-76
2021/03/16 08:58:21;;;;;;;4.53;1.40;;;22.40;62.40;;;;;;6211454;23;20001;-78
2021/03/16 09:00:49;;;;;;;3.55;0.80;;;22.50;61.80;;;;;;6212465;23;20058;-77
2021/03/16 09:03:16;;;;;;;2.83;0.88;;;22.50;61.30;;;;;;6213074;23;20440;-75
2021/03/16 09:05:42;;;;;;;4.40;1.08;;;22.60;60.90;;;;;;6212846;23;20324;-79
2021/03/16 09:08:09;;;;;;;4.15;0.77;;;22.60;60.60;;;;;;6211864;23;20096;-77
2021/03/16 09:10:36;;;;;;;4.32;1.17;;;22.60;60.20;;;;;;6213524;23;20073;-78
2021/03/16 09:13:03;;;;;;;3.75;0.70;;;22.60;60.30;;;;;;6211650;23;20005;-79
2021/03/16 09:15:33;;;;;;;2.67;0.82;;;22.70;60.10;;;;;;6213351;23;20073;-77
2021/03/16 09:18:05;;;;;;;4.15;1.13;;;22.80;60.20;;;;;;6212163;23;20379;-78
2021/03/16 09:20:33;;;;;;;3.78;0.90;;;22.80;60.00;;;;;;6213051;23;20001;-78
2021/03/16 09:23:12;;;;;;;3.65;0.90;;;22.80;59.70;;;;;;6212944;23;20360;-78
2021/03/16 09:25:43;;;;;;;4.63;1.30;;;22.90;59.50;;;;;;6211657;23;20001;-76
2021/03/16 09:28:15;;;;;;;3.88;0.80;;;22.90;59.60;;;;;;6213013;23;20024;-78
2021/03/16 09:30:52;;;;;;;2.40;0.80;;;23.00;59.40;;;;;;6211766;23;20007;-77
2021/03/16 09:33:22;;;;;;;3.35;0.70;;;23.00;59.70;;;;;;6212563;23;20013;-76
2021/03/16 09:35:59;;;;;;;6.07;1.10;;;23.10;59.70;;;;;;6212274;23;20443;-77
2021/03/16 09:38:26;;;;;;;2.83;0.80;;;23.10;59.50;;;;;;6211718;23;20005;-75
2021/03/16 09:40:53;;;;;;;5.10;1.65;;;23.10;59.50;;;;;;6212843;23;20004;-77
2021/03/16 09:43:48;;;;;;;4.70;1.10;;;23.20;59.60;;;;;;6211144;23;20456;-78
2021/03/16 09:46:15;;;;;;;;;;;23.30;59.50;;;;;;6182404;23;20012;-78
2021/03/16 09:49:07;;;;;;;4.57;1.60;;;23.30;58.90;;;;;;6212460;23;20299;-78
2021/03/16 09:51:33;;;;;;;1.80;1.05;;;23.40;59.00;;;;;;6205180;23;20012;-77
2021/03/16 09:54:00;;;;;;;2.78;0.77;;;23.40;58.70;;;;;;6212612;23;20047;-78
2021/03/16 09:56:27;;;;;;;3.92;1.15;;;23.50;59.10;;;;;;6211486;23;20001;-78
2021/03/16 09:58:59;;;;;;;2.17;1.17;;;23.50;58.20;;;;;;6212349;23;20035;-78
2021/03/16 10:01:26;;;;;;;5.70;1.63;;;23.60;57.90;;;;;;6212743;23;20371;-76
2021/03/16 10:04:00;;;;;;;14.40;2.70;;;23.60;57.80;;;;;;6212332;23;20054;-77
2021/03/16 10:06:37;;;;;;;6.18;1.70;;;23.70;57.80;;;;;;6212870;23;20009;-76
2021/03/16 10:09:16;;;;;;;4.70;1.17;;;23.70;57.30;;;;;;6210876;23;20000;-78
2021/03/16 10:11:43;;;;;;;2.10;1.10;;;23.80;57.20;;;;;;6212847;23;20028;-78
2021/03/16 12:31:32;;;;;;;5.63;1.73;;;25.30;55.30;;;;;;5126572;27;20502;-74
2021/03/16 12:33:58;;;;;;;4.28;1.20;;;26.20;54.90;;;;;;5110056;28;20034;-75
2021/03/16 12:36:25;;;;;;;4.93;1.35;;;26.20;54.80;;;;;;5105939;28;20023;-75
2021/03/16 12:38:51;;;;;;;3.15;0.80;;;26.20;54.80;;;;;;5104900;28;20023;-75
2021/03/16 12:41:18;;;;;;;1.70;1.02;;;26.20;54.60;;;;;;5092789;28;20069;-74
2021/03/16 12:43:44;;;;;;;4.72;1.17;;;26.30;54.50;;;;;;5102081;28;20522;-74
2021/03/16 12:46:11;;;;;;;2.95;0.93;;;26.30;54.40;;;;;;5116273;28;20043;-74
2021/03/16 12:48:37;;;;;;;4.10;1.13;;;26.30;54.20;;;;;;5111774;28;20032;-74
2021/03/16 12:51:04;;;;;;;5.50;1.15;;;26.40;54.20;;;;;;5111840;28;20016;-74
2021/03/16 12:53:31;;;;;;;4.07;0.98;;;26.40;54.20;;;;;;5101962;28;20110;-74
2021/03/16 12:55:57;;;;;;;2.50;0.95;;;26.40;54.00;;;;;;5103210;28;20024;-73
2021/03/16 12:58:24;;;;;;;4.05;1.42;;;26.40;54.00;;;;;;5103961;28;20024;-73
2021/03/16 13:00:51;;;;;;;5.97;1.35;;;26.40;54.00;;;;;;5116883;28;20458;-73
2021/03/16 13:03:18;;;;;;;5.38;1.52;;;26.40;54.20;;;;;;5092814;28;20034;-73
2021/03/16 13:05:44;;;;;;;4.15;1.23;;;26.40;54.30;;;;;;5088184;28;20035;-75
2021/03/16 13:08:11;;;;;;;3.05;1.00;;;26.50;54.50;;;;;;5113224;28;20095;-73
2021/03/16 13:10:38;;;;;;;6.00;1.20;;;26.40;54.60;;;;;;5107397;28;20028;-73
2021/03/16 13:13:04;;;;;;;2.35;1.02;;;26.40;54.60;;;;;;5113770;28;20031;-75
2021/03/16 13:15:30;;;;;;;4.05;1.20;;;26.40;54.60;;;;;;5102814;28;20055;-73
2021/03/16 13:17:57;;;;;;;5.43;1.45;;;26.40;54.60;;;;;;5109156;28;20023;-73
2021/03/16 13:20:24;;;;;;;3.30;0.82;;;26.40;54.40;;;;;;5098341;28;20028;-73
2021/03/16 13:22:50;;;;;;;2.70;0.90;;;26.40;54.50;;;;;;5099012;28;20066;-74
2021/03/16 13:25:17;;;;;;;3.13;0.85;;;26.40;54.50;;;;;;5100562;28;20041;-74
2021/03/16 13:27:43;;;;;;;2.97;1.10;;;26.40;54.60;;;;;;5100415;28;20455;-73
2021/03/16 13:30:10;;;;;;;8.30;1.23;;;26.40;54.60;;;;;;5097505;28;20402;-73
2021/03/16 13:32:36;;;;;;;3.50;0.80;;;26.40;54.50;;;;;;5092256;28;20412;-74
2021/03/16 13:35:04;;;;;;;5.22;2.55;;;26.40;54.30;;;;;;5094330;28;20026;-73
2021/03/16 13:37:30;;;;;;;5.57;0.80;;;26.40;54.40;;;;;;5093249;28;20032;-73
2021/03/16 13:39:56;;;;;;;5.78;0.93;;;26.40;54.20;;;;;;5091267;28;20076;-73
2021/03/16 13:42:23;;;;;;;4.20;1.05;;;26.40;54.30;;;;;;5089096;28;20108;-77
2021/03/16 13:44:50;;;;;;;3.65;0.75;;;26.40;54.40;;;;;;5097413;28;20024;-74
2021/03/16 13:47:16;;;;;;;2.13;1.13;;;26.40;54.50;;;;;;5077298;28;20442;-73
2021/03/16 13:49:43;;;;;;;5.95;1.10;;;26.40;54.60;;;;;;5091326;28;20172;-73
2021/03/16 13:52:09;;;;;;;6.90;1.40;;;26.30;54.60;;;;;;5098899;28;20012;-74
2021/03/16 13:54:36;;;;;;;2.85;0.82;;;26.30;54.90;;;;;;5090184;28;20035;-73
2021/03/16 13:57:02;;;;;;;2.47;0.95;;;26.30;55.00;;;;;;5089878;28;20034;-73
2021/03/16 13:59:29;;;;;;;3.50;1.38;;;26.30;55.10;;;;;;5087554;28;20395;-74
2021/03/16 14:01:55;;;;;;;2.97;1.50;;;26.30;55.20;;;;;;5097339;28;20047;-74
2021/03/16 14:04:22;;;;;;;2.22;0.98;;;26.30;55.10;;;;;;5090227;28;20533;-73
2021/03/16 14:06:48;;;;;;;3.90;1.27;;;26.30;55.20;;;;;;5085389;28;20036;-78
2021/03/16 14:09:15;;;;;;;8.52;0.70;;;26.30;55.30;;;;;;5095687;28;20116;-74
2021/03/16 14:11:41;;;;;;;2.63;0.85;;;26.30;55.30;;;;;;5085636;28;20028;-74
2021/03/16 14:14:08;;;;;;;4.82;0.88;;;26.20;55.30;;;;;;5093443;28;20024;-73
2021/03/16 14:16:34;;;;;;;4.63;1.40;;;26.20;55.30;;;;;;5096304;28;20026;-74
2021/03/16 14:19:01;;;;;;;3.33;1.58;;;26.20;55.30;;;;;;5092050;28;20024;-73
2021/03/16 14:21:27;;;;;;;2.65;0.90;;;26.20;55.40;;;;;;5088859;28;20471;-76
2021/03/16 14:23:54;;;;;;;3.92;1.02;;;26.20;55.50;;;;;;5076902;28;20057;-73
2021/03/16 14:26:21;;;;;;;2.35;0.88;;;26.20;55.50;;;;;;5079733;28;20095;-75
2021/03/16 14:28:48;;;;;;;6.97;1.70;;;26.20;55.60;;;;;;5093100;28;20036;-73
2021/03/16 14:31:43;;;;;;;4.13;1.00;;;26.20;55.50;;;;;;5065861;28;20048;-73
2021/03/16 14:34:09;;;;;;;5.30;1.55;;;26.10;55.40;;;;;;5068957;28;20735;-74
2021/03/16 14:36:36;;;;;;;2.35;1.00;;;26.10;56.00;;;;;;5089526;28;20024;-74
2021/03/16 14:39:03;;;;;;;9.38;1.02;;;26.10;56.80;;;;;;5087662;28;20119;-73
2021/03/16 14:41:30;;;;;;;4.88;1.00;;;26.10;56.20;;;;;;5091461;28;20440;-71
2021/03/16 14:43:56;;;;;;;7.15;2.65;;;26.10;56.30;;;;;;5086572;28;20061;-71
2021/03/16 14:46:23;;;;;;;12.07;5.30;;;26.10;56.40;;;;;;5074531;28;20405;-72
2021/03/16 14:48:49;;;;;;;164.00;148.00;;;26.00;56.40;;;;;;5083507;28;20040;-71
2021/03/16 14:51:16;;;;;;;69.95;62.70;;;26.00;56.70;;;;;;5089072;28;20020;-74
2021/03/16 14:53:42;;;;;;;42.47;37.63;;;26.00;56.70;;;;;;5098164;28;20026;-73
2021/03/16 14:56:09;;;;;;;48.53;35.40;;;25.90;56.70;;;;;;5089498;28;20429;-74
2021/03/16 14:58:51;;;;;;;27.25;24.13;;;25.90;57.00;;;;;;5088341;28;20084;-72
2021/03/16 15:01:19;;;;;;;23.77;20.83;;;25.90;56.90;;;;;;5088315;28;20039;-71
2021/03/16 15:03:46;;;;;;;18.42;14.20;;;25.80;57.00;;;;;;5093908;28;20100;-70
2021/03/16 15:06:12;;;;;;;11.40;7.80;;;25.80;56.90;;;;;;5091611;28;20077;-74
2021/03/16 15:08:42;;;;;;;11.32;8.82;;;25.80;57.10;;;;;;5094480;28;20082;-72
2021/03/16 15:11:10;;;;;;;8.80;6.38;;;25.80;57.30;;;;;;5091091;28;20423;-75
2021/03/16 15:13:36;;;;;;;9.93;6.53;;;25.80;57.60;;;;;;5090190;28;20087;-73
2021/03/16 15:16:03;;;;;;;11.07;6.72;;;25.80;57.40;;;;;;5082706;28;20020;-73
2021/03/16 15:18:29;;;;;;;10.25;8.07;;;25.80;57.80;;;;;;5091635;28;20030;-77
2021/03/16 15:20:56;;;;;;;9.73;5.60;;;25.80;58.10;;;;;;5089960;28;20026;-77
2021/03/16 15:23:22;;;;;;;7.55;5.85;;;25.80;58.10;;;;;;5084587;28;20024;-75
2021/03/16 15:25:50;;;;;;;7.40;4.18;;;25.80;58.30;;;;;;5085383;28;20051;-74
2021/03/16 15:28:16;;;;;;;9.68;3.45;;;25.70;58.10;;;;;;5093365;28;20433;-77
2021/03/16 15:30:43;;;;;;;6.65;3.33;;;25.70;58.60;;;;;;5075606;28;20048;-77
2021/03/16 15:33:09;;;;;;;3.67;2.13;;;25.60;58.40;;;;;;5090484;28;20434;-78
2021/03/16 15:35:36;;;;;;;6.60;2.10;;;25.60;58.40;;;;;;5093681;28;20016;-77
2021/03/16 15:38:03;;;;;;;6.57;1.50;;;25.60;58.50;;;;;;5086126;28;20016;-75
2021/03/16 15:40:30;;;;;;;7.97;2.13;;;25.50;58.60;;;;;;5079643;28;20423;-80
2021/03/16 15:43:36;;;;;;;3.88;1.63;;;25.50;58.40;;;;;;5085820;28;20023;-76
2021/03/16 15:46:04;;;;;;;;;;;25.40;58.30;;;;;;5082084;28;20145;-80
2021/03/16 15:48:31;;;;;;;6.20;1.75;;;25.40;58.40;;;;;;5098660;28;19915;-75
2021/03/16 15:50:58;;;;;;;9.23;6.00;;;25.40;58.50;;;;;;5090394;28;20687;-75
2021/03/16 15:53:24;;;;;;;5.45;3.35;;;25.30;58.30;;;;;;5090282;28;20026;-75
2021/03/16 15:56:30;;;;;;;6.20;2.88;;;25.30;58.60;;;;;;5065283;28;20039;-74
2021/03/16 15:59:16;;;;;;;;;;;25.20;58.30;;;;;;5089217;28;20022;-74
2021/03/16 16:02:22;;;;;;;4.95;1.50;;;25.10;58.20;;;;;;5068545;28;19912;-76
2021/03/16 16:05:08;;;;;;;;;;;24.90;58.70;;;;;;5099720;28;20171;-77
2021/03/16 16:08:15;;;;;;;7.68;1.70;;;24.80;59.20;;;;;;5086928;28;19908;-75
2021/03/16 16:11:21;;;;;;;11.80;3.25;;;24.70;59.20;;;;;;5086823;28;20070;-75
2021/03/16 16:13:47;;;;;;;;;;;24.60;59.60;;;;;;5095412;28;20027;-75
2021/03/16 16:16:13;;;;;;;5.22;1.85;;;24.60;59.80;;;;;;5087909;28;20263;-83
2021/03/16 16:18:40;;;;;;;8.05;2.47;;;24.70;59.90;;;;;;5086181;28;20077;-79
2021/03/16 16:21:08;;;;;;;8.73;2.03;;;24.70;60.00;;;;;;5087193;28;20109;-80
2021/03/16 16:23:35;;;;;;;5.10;1.23;;;24.70;60.00;;;;;;5092755;28;20398;-81
2021/03/16 16:26:01;;;;;;;6.15;1.65;;;24.70;60.00;;;;;;5091562;28;20165;-71
2021/03/16 16:28:28;;;;;;;5.70;1.55;;;24.70;60.10;;;;;;5088909;28;20028;-81
2021/03/16 16:30:54;;;;;;;4.70;1.20;;;24.70;60.20;;;;;;5093757;28;20134;-76
2021/03/16 16:33:21;;;;;;;2.85;1.20;;;24.60;60.10;;;;;;5090908;28;20445;-78
2021/03/16 16:35:47;;;;;;;7.53;3.28;;;24.60;60.10;;;;;;5088462;28;20031;-75
2021/03/16 16:38:14;;;;;;;4.72;2.28;;;24.60;60.20;;;;;;5084554;28;20027;-81
2021/03/16 16:40:40;;;;;;;5.38;2.70;;;24.60;60.20;;;;;;5067182;28;20043;-74
2021/03/16 16:43:07;;;;;;;4.10;1.70;;;24.60;60.30;;;;;;5084831;28;20044;-75
2021/03/16 16:45:34;;;;;;;7.40;1.70;;;24.60;60.40;;;;;;5068334;28;20032;-77
2021/03/16 16:48:00;;;;;;;6.57;1.40;;;24.50;60.50;;;;;;5088585;28;20019;-72
2021/03/16 16:50:27;;;;;;;8.73;3.08;;;24.50;60.70;;;;;;5084673;28;20028;-75
2021/03/16 16:52:54;;;;;;;4.82;1.58;;;24.50;60.70;;;;;;5088735;28;20470;-77
2021/03/16 16:55:20;;;;;;;7.20;5.72;;;24.40;60.80;;;;;;5079032;28;20043;-76
2021/03/16 16:57:47;;;;;;;6.57;3.25;;;24.40;61.00;;;;;;5094000;28;20024;-74
2021/03/16 17:00:14;;;;;;;7.93;3.15;;;24.40;61.10;;;;;;5088071;28;20020;-75
2021/03/16 17:02:41;;;;;;;7.47;3.25;;;24.30;61.10;;;;;;5089647;28;20024;-71
2021/03/16 17:05:11;;;;;;;7.15;2.88;;;24.30;61.10;;;;;;5083176;28;20544;-74
2021/03/16 17:07:37;;;;;;;6.90;2.80;;;24.30;61.20;;;;;;5088994;28;20107;-75
2021/03/16 17:10:07;;;;;;;8.40;2.55;;;24.20;61.20;;;;;;5091377;28;20031;-73
2021/03/16 17:12:34;;;;;;;5.88;1.30;;;24.20;61.20;;;;;;5094434;28;20149;-72
2021/03/16 17:15:00;;;;;;;4.95;2.10;;;24.20;61.10;;;;;;5089719;28;20032;-77
2021/03/16 17:17:27;;;;;;;8.82;3.33;;;24.20;61.00;;;;;;5100064;28;20115;-76
2021/03/16 17:19:53;;;;;;;5.90;4.72;;;24.20;61.10;;;;;;5091597;28;20028;-77
2021/03/16 17:22:21;;;;;;;13.57;5.78;;;24.20;61.20;;;;;;5068633;28;20444;-74
2021/03/16 17:24:48;;;;;;;9.48;5.22;;;24.20;61.10;;;;;;5090625;28;20020;-75
2021/03/16 17:27:56;;;;;;;11.65;4.90;;;24.10;60.90;;;;;;5090543;28;20019;-76
2021/03/16 17:31:07;;;;;;;8.77;3.80;;;24.10;60.60;;;;;;5087199;28;20054;-76
2021/03/16 17:33:35;;;;;;;3.22;1.80;;;24.10;60.90;;;;;;5093024;28;20361;-74
2021/03/16 17:36:04;;;;;;;3.83;2.72;;;24.10;61.00;;;;;;5075474;28;20022;-78
2021/03/16 17:38:31;;;;;;;10.98;5.50;;;24.00;60.70;;;;;;5090626;28;20065;-75
2021/03/16 17:41:00;;;;;;;6.75;3.25;;;24.00;60.80;;;;;;5087034;28;20012;-78
2021/03/16 17:43:29;;;;;;;6.53;4.07;;;24.00;60.80;;;;;;5088977;28;20563;-79
2021/03/16 17:45:56;;;;;;;4.78;3.60;;;24.00;60.60;;;;;;5088654;28;20424;-76
2021/03/16 17:48:25;;;;;;;6.05;3.45;;;24.00;60.50;;;;;;5092310;28;20020;-74
2021/03/16 17:50:52;;;;;;;4.45;2.60;;;24.00;60.50;;;;;;5083815;28;20055;-79
2021/03/16 17:53:19;;;;;;;8.15;3.20;;;24.00;60.50;;;;;;5088217;28;20070;-75
2021/03/16 17:55:45;;;;;;;9.35;3.65;;;24.00;60.50;;;;;;5085194;28;20107;-74
2021/03/16 17:58:12;;;;;;;5.05;3.50;;;23.90;60.60;;;;;;5071365;28;20020;-77
2021/03/16 18:00:38;;;;;;;6.60;3.78;;;23.90;60.60;;;;;;5070160;28;20835;-78